createdAt,value
2017-11-14T00:01:19.424Z,56.10
2017-11-14T00:03:47.303Z,56.10
2017-11-14T00:06:15.136Z,56.30
2017-11-14T00:08:42.974Z,56.30
2017-11-14T00:11:10.774Z,56.30
2017-11-14T00:13:38.741Z,56.40
2017-11-14T00:16:06.610Z,56.40
2017-11-14T00:18:34.442Z,56.40
2017-11-14T00:21:02.345Z,56.50
2017-11-14T00:23:30.259Z,56.60
2017-11-14T00:25:58.117Z,56.60
2017-11-14T00:28:26.045Z,56.50
2017-11-14T00:30:53.931Z,56.60
2017-11-14T00:33:21.828Z,56.70
2017-11-14T00:35:49.730Z,56.70
2017-11-14T00:38:17.553Z,56.70
2017-11-14T00:40:45.454Z,56.70
2017-11-14T00:43:13.364Z,56.80
2017-11-14T00:45:41.205Z,56.80
2017-11-14T00:48:09.823Z,56.90
2017-11-14T00:50:37.778Z,56.90
2017-11-14T00:53:05.683Z,57.00
2017-11-14T00:55:33.591Z,56.80
2017-11-14T00:58:01.464Z,57.00
2017-11-14T01:00:29.280Z,56.50
2017-11-14T01:02:57.386Z,57.20
2017-11-14T01:05:25.256Z,56.30
2017-11-14T01:07:53.088Z,57.60
2017-11-14T01:10:20.993Z,57.30
2017-11-14T01:12:48.940Z,57.30
2017-11-14T01:15:16.742Z,57.40
2017-11-14T01:17:44.585Z,57.20
2017-11-14T01:20:12.498Z,57.20
2017-11-14T01:22:41.108Z,57.30
2017-11-14T01:25:08.958Z,57.20
2017-11-14T01:27:36.878Z,57.30
2017-11-14T01:30:04.755Z,57.40
2017-11-14T01:32:32.726Z,57.50
2017-11-14T01:35:00.580Z,57.50
2017-11-14T01:37:28.484Z,57.50
2017-11-14T01:39:56.313Z,57.60
2017-11-14T01:42:24.231Z,57.60
2017-11-14T01:44:52.097Z,57.70
2017-11-14T01:47:19.934Z,57.70
2017-11-14T01:49:47.915Z,57.60
2017-11-14T01:52:15.799Z,57.60
2017-11-14T01:54:43.728Z,57.80
2017-11-14T01:57:11.648Z,57.80
2017-11-14T01:59:39.603Z,57.80
2017-11-14T02:02:07.419Z,57.90
2017-11-14T02:04:35.385Z,58.00
2017-11-14T02:07:03.363Z,57.90
2017-11-14T02:09:31.322Z,57.90
2017-11-14T02:11:59.269Z,57.90
2017-11-14T02:14:27.153Z,57.90
2017-11-14T02:16:55.043Z,58.00
2017-11-14T02:19:23.013Z,58.00
2017-11-14T02:21:50.901Z,58.00
2017-11-14T02:24:18.816Z,58.10
2017-11-14T02:27:05.414Z,58.10
2017-11-14T02:29:33.308Z,58.10
2017-11-14T02:32:01.220Z,58.10
2017-11-14T02:34:29.094Z,58.10
2017-11-14T02:36:56.950Z,58.10
2017-11-14T02:39:24.907Z,58.00
2017-11-14T02:41:53.554Z,58.10
2017-11-14T02:44:21.449Z,58.00
2017-11-14T02:46:49.372Z,58.10
2017-11-14T02:49:17.320Z,58.20
2017-11-14T02:51:45.257Z,58.10
2017-11-14T02:54:13.929Z,58.10
2017-11-14T02:56:41.860Z,58.10
2017-11-14T02:59:09.724Z,58.00
2017-11-14T03:01:37.608Z,57.90
2017-11-14T03:04:05.565Z,58.20
2017-11-14T03:06:33.467Z,58.20
2017-11-14T03:09:01.418Z,58.10
2017-11-14T03:11:29.346Z,58.00
2017-11-14T03:13:57.301Z,58.10
2017-11-14T03:16:25.938Z,58.20
2017-11-14T03:18:53.890Z,58.20
2017-11-14T03:21:21.833Z,58.60
2017-11-14T03:23:49.756Z,58.00
2017-11-14T03:26:17.688Z,57.60
2017-11-14T03:28:45.554Z,58.30
2017-11-14T03:31:13.518Z,58.30
2017-11-14T03:33:42.213Z,58.40
2017-11-14T03:36:10.980Z,58.30
2017-11-14T03:38:38.854Z,58.20
2017-11-14T03:41:06.732Z,58.30
2017-11-14T03:43:34.589Z,58.30
2017-11-14T03:46:02.544Z,58.60
2017-11-14T03:48:30.508Z,58.60
2017-11-14T03:50:58.420Z,58.50
2017-11-14T03:53:27.070Z,58.40
2017-11-14T03:55:55.058Z,58.40
2017-11-14T03:58:22.981Z,56.30
2017-11-14T04:00:50.864Z,57.10
2017-11-14T04:03:18.779Z,58.70
2017-11-14T04:05:47.403Z,56.70
2017-11-14T04:08:15.272Z,56.80
2017-11-14T04:10:43.116Z,58.80
2017-11-14T04:13:11.031Z,58.70
2017-11-14T04:15:38.970Z,58.80
2017-11-14T04:18:06.874Z,58.60
2017-11-14T04:20:34.862Z,57.30
2017-11-14T04:23:02.774Z,57.50
2017-11-14T04:25:31.493Z,58.90
2017-11-14T04:27:59.461Z,58.90
2017-11-14T04:30:27.360Z,57.80
2017-11-14T04:32:55.238Z,56.30
2017-11-14T04:35:23.143Z,48.80
2017-11-14T04:37:50.999Z,57.90
2017-11-14T04:40:19.657Z,59.60
2017-11-14T04:46:08.339Z,49.40
2017-11-14T04:48:36.239Z,54.10
2017-11-14T04:51:04.143Z,53.20
2017-11-14T04:53:32.026Z,59.70
2017-11-14T04:55:59.924Z,63.80
2017-11-14T04:58:27.752Z,56.00
2017-11-14T05:00:55.788Z,62.70
2017-11-14T05:03:24.419Z,58.30
2017-11-14T05:05:52.290Z,58.20
2017-11-14T05:08:20.153Z,59.90
2017-11-14T05:10:48.019Z,51.80
2017-11-14T05:16:45.264Z,46.70
2017-11-14T05:19:13.315Z,52.20
2017-11-14T05:21:41.192Z,61.90
2017-11-14T05:24:10.704Z,55.90
2017-11-14T05:26:38.586Z,55.80
2017-11-14T05:29:08.043Z,56.50
2017-11-14T05:31:36.043Z,56.50
2017-11-14T05:34:03.925Z,48.70
2017-11-14T05:36:32.640Z,44.60
2017-11-14T05:39:00.567Z,49.10
2017-11-14T05:41:28.629Z,50.10
2017-11-14T05:43:56.583Z,54.40
2017-11-14T05:46:24.499Z,45.50
2017-11-14T05:48:52.393Z,50.70
2017-11-14T05:51:20.491Z,60.20
2017-11-14T05:53:48.346Z,54.80
2017-11-14T05:56:16.312Z,44.70
2017-11-14T05:58:44.262Z,55.00
2017-11-14T06:01:12.932Z,53.40
2017-11-14T06:03:40.798Z,61.00
2017-11-14T06:06:08.919Z,54.80
2017-11-14T06:08:36.749Z,56.00
2017-11-14T06:11:05.087Z,50.60
2017-11-14T06:13:33.001Z,45.90
2017-11-14T06:16:00.845Z,59.10
2017-11-14T06:18:28.726Z,46.20
2017-11-14T06:21:04.976Z,51.60
2017-11-14T06:23:32.934Z,51.60
2017-11-14T06:26:00.774Z,57.80
2017-11-14T06:28:28.724Z,56.40
2017-11-14T06:30:56.632Z,52.00
2017-11-14T06:33:24.549Z,50.90
2017-11-14T06:35:55.565Z,56.40
2017-11-14T06:38:23.378Z,52.30
2017-11-14T06:40:51.294Z,51.80
2017-11-14T06:43:19.230Z,47.80
2017-11-14T06:45:47.582Z,51.30
2017-11-14T06:48:16.410Z,55.50
2017-11-14T06:50:44.186Z,55.30
2017-11-14T06:53:12.004Z,58.00
2017-11-14T06:55:39.864Z,48.10
2017-11-14T06:58:07.768Z,54.60
2017-11-14T07:00:36.402Z,53.80
2017-11-14T07:03:04.356Z,53.60
2017-11-14T07:05:32.265Z,51.60
2017-11-14T07:08:00.131Z,47.50
2017-11-14T07:10:27.959Z,44.00
2017-11-14T07:12:55.746Z,48.00
2017-11-14T07:15:23.599Z,51.10
2017-11-14T07:17:51.482Z,52.10
2017-11-14T07:20:20.183Z,51.30
2017-11-14T07:22:48.020Z,53.00
2017-11-14T07:25:15.874Z,53.10
2017-11-14T07:27:43.700Z,50.20
2017-11-14T07:30:11.522Z,47.20
2017-11-14T07:32:39.310Z,51.00
2017-11-14T07:35:08.146Z,54.00
2017-11-14T07:37:35.990Z,50.90
2017-11-14T07:40:03.816Z,52.10
2017-11-14T07:42:31.660Z,52.40
2017-11-14T07:44:59.518Z,47.00
2017-11-14T07:47:27.374Z,46.90
2017-11-14T07:49:55.165Z,53.10
2017-11-14T07:52:23.779Z,51.80
2017-11-14T07:54:51.628Z,51.70
2017-11-14T07:57:20.235Z,50.00
2017-11-14T07:59:48.116Z,49.90
2017-11-14T08:02:15.886Z,51.40
2017-11-14T08:04:43.937Z,48.20
2017-11-14T08:07:11.811Z,45.30
2017-11-14T08:09:39.684Z,44.50
2017-11-14T08:12:07.520Z,47.70
2017-11-14T08:14:36.169Z,52.10
2017-11-14T08:17:03.994Z,52.00
2017-11-14T08:19:31.831Z,44.50
2017-11-14T08:21:59.769Z,42.70
2017-11-14T08:24:27.656Z,45.70
2017-11-14T08:26:55.541Z,48.10
2017-11-14T08:29:23.427Z,42.30
2017-11-14T08:31:52.040Z,52.70
2017-11-14T08:34:19.879Z,52.70
2017-11-14T08:36:48.503Z,52.60
2017-11-14T08:39:16.318Z,52.30
2017-11-14T08:41:44.120Z,44.40
2017-11-14T08:44:11.961Z,52.40
2017-11-14T08:46:39.974Z,54.10
2017-11-14T08:49:07.788Z,52.30
2017-11-14T08:51:35.604Z,44.60
2017-11-14T08:54:03.470Z,53.50
2017-11-14T08:56:31.355Z,45.90
2017-11-14T08:58:59.222Z,40.90
2017-11-14T09:01:27.153Z,45.00
2017-11-14T09:03:55.847Z,45.30
2017-11-14T09:06:23.763Z,45.20
2017-11-14T09:08:51.727Z,45.80
2017-11-14T09:11:19.649Z,49.40
2017-11-14T09:13:47.649Z,43.40
2017-11-14T09:16:15.500Z,54.40
2017-11-14T09:18:43.333Z,42.70
2017-11-14T09:21:11.373Z,44.80
2017-11-14T09:23:39.358Z,42.60
2017-11-14T09:26:07.339Z,51.70
2017-11-14T09:28:35.279Z,48.90
2017-11-14T09:31:03.263Z,49.30
2017-11-14T09:33:31.179Z,42.70
2017-11-14T09:35:59.099Z,52.20
2017-11-14T09:38:27.069Z,46.20
2017-11-14T09:41:01.009Z,51.90
2017-11-14T09:43:28.906Z,54.00
2017-11-14T09:45:56.844Z,51.90
2017-11-14T09:48:24.900Z,41.80
2017-11-14T09:50:52.824Z,48.70
2017-11-14T09:53:20.731Z,45.50
2017-11-14T09:55:48.587Z,56.00
2017-11-14T09:58:16.566Z,49.00
2017-11-14T10:00:44.424Z,48.90
2017-11-14T10:03:12.463Z,51.70
2017-11-14T10:05:40.342Z,48.80
2017-11-14T10:08:08.229Z,44.30
2017-11-14T10:10:36.172Z,49.00
2017-11-14T10:13:04.031Z,46.60
2017-11-14T10:15:31.932Z,45.50
2017-11-14T10:17:59.845Z,51.50
2017-11-14T10:20:27.709Z,49.40
2017-11-14T10:22:55.574Z,49.20
2017-11-14T10:25:23.388Z,47.20
2017-11-14T10:27:51.186Z,48.40
2017-11-14T10:30:20.012Z,44.80
2017-11-14T10:32:47.951Z,37.10
2017-11-14T10:35:15.927Z,40.00
2017-11-14T10:37:43.807Z,49.20
2017-11-14T10:40:19.517Z,49.10
2017-11-14T10:42:47.472Z,47.90
2017-11-14T10:45:15.321Z,40.40
2017-11-14T10:47:43.276Z,42.90
2017-11-14T10:50:11.210Z,40.80
2017-11-14T10:52:40.775Z,38.20
2017-11-14T10:55:08.743Z,39.40
2017-11-14T10:57:36.816Z,51.40
2017-11-14T11:00:04.884Z,41.80
2017-11-14T11:02:32.805Z,44.90
2017-11-14T11:05:00.708Z,41.80
2017-11-14T11:07:28.671Z,39.10
2017-11-14T11:09:56.498Z,40.90
2017-11-14T11:12:25.360Z,41.10
2017-11-14T11:14:53.251Z,41.00
2017-11-14T11:20:38.068Z,41.50
2017-11-14T11:30:07.973Z,43.60
2017-11-14T11:42:34.280Z,43.60
2017-11-14T12:13:15.961Z,44.80
2017-11-14T12:19:04.355Z,45.90
2017-11-14T12:21:32.206Z,57.20
2017-11-14T12:24:00.866Z,44.40
2017-11-14T12:26:29.597Z,43.10
2017-11-14T12:28:57.478Z,43.50
2017-11-14T12:31:25.363Z,41.90
2017-11-14T12:33:53.299Z,40.90
2017-11-14T12:36:21.240Z,42.20
2017-11-14T12:38:50.294Z,39.50
2017-11-14T12:42:01.220Z,42.00
2017-11-14T12:44:29.232Z,48.50
2017-11-14T12:46:57.137Z,51.80
2017-11-14T12:49:24.963Z,53.50
2017-11-14T12:51:52.853Z,47.70
2017-11-14T12:54:20.685Z,48.80
2017-11-14T12:56:49.470Z,46.70
2017-11-14T12:59:18.121Z,47.20
2017-11-14T13:01:46.059Z,47.40
2017-11-14T13:04:14.560Z,50.20
2017-11-14T13:06:42.918Z,45.70
2017-11-14T13:09:10.786Z,51.00
2017-11-14T13:11:38.645Z,43.30
2017-11-14T13:14:06.445Z,49.50
2017-11-14T13:16:34.293Z,49.90
2017-11-14T13:19:02.663Z,49.30
2017-11-14T13:21:30.916Z,47.70
2017-11-14T13:23:59.602Z,45.30
2017-11-14T13:26:27.554Z,45.60
2017-11-14T13:28:55.472Z,48.70
2017-11-14T13:31:23.462Z,35.80
2017-11-14T13:33:51.393Z,49.80
2017-11-14T13:36:21.889Z,49.70
2017-11-14T13:38:49.844Z,49.60
2017-11-14T13:46:37.068Z,48.20
2017-11-14T13:49:05.096Z,44.50
2017-11-14T13:51:33.122Z,36.00
2017-11-14T13:54:01.093Z,45.80
2017-11-14T13:56:29.081Z,46.80
2017-11-14T13:58:57.114Z,42.50
2017-11-14T14:01:25.114Z,46.30
2017-11-14T14:03:53.072Z,49.70
2017-11-14T14:06:20.912Z,49.30
2017-11-14T14:08:48.776Z,41.00
2017-11-14T14:11:19.428Z,49.80
2017-11-14T14:13:51.806Z,44.20
2017-11-14T14:16:20.858Z,49.50
2017-11-14T14:18:49.761Z,47.20
2017-11-14T14:21:17.650Z,45.90
2017-11-14T14:23:47.169Z,48.30
2017-11-14T14:26:15.053Z,46.10
2017-11-14T14:28:42.896Z,39.30
2017-11-14T14:31:10.804Z,39.10
2017-11-14T14:33:38.637Z,47.80
2017-11-14T14:36:14.838Z,43.10
2017-11-14T14:38:43.098Z,42.50
2017-11-14T14:41:11.055Z,41.70
2017-11-14T14:43:38.961Z,49.20
2017-11-14T14:46:07.048Z,46.20
2017-11-14T14:51:57.135Z,35.10
2017-11-14T14:54:25.123Z,34.90
2017-11-14T14:56:52.969Z,43.90
2017-11-14T14:59:50.260Z,39.80
2017-11-14T15:02:18.576Z,40.30
2017-11-14T15:07:49.505Z,46.80
2017-11-14T15:10:18.266Z,45.60
2017-11-14T15:12:46.484Z,48.30
2017-11-14T15:15:15.784Z,46.00
2017-11-14T15:17:44.544Z,42.00
2017-11-14T15:20:12.496Z,40.80
2017-11-14T15:22:40.457Z,43.80
2017-11-14T15:25:08.421Z,43.90
2017-11-14T15:27:38.340Z,46.40
2017-11-14T15:30:07.474Z,39.50
2017-11-14T15:32:35.490Z,39.60
2017-11-14T15:35:03.592Z,48.10
2017-11-14T15:37:31.613Z,47.10
2017-11-14T15:39:59.545Z,44.10
2017-11-14T15:42:28.154Z,47.50
2017-11-14T15:44:57.117Z,47.50
2017-11-14T15:47:25.678Z,42.80
2017-11-14T15:50:16.351Z,47.10
2017-11-14T15:52:44.381Z,47.10
2017-11-14T15:55:12.432Z,47.10
2017-11-14T15:57:40.390Z,46.40
2017-11-14T16:00:09.130Z,47.90
2017-11-14T16:02:38.144Z,47.80
2017-11-14T16:05:07.056Z,46.40
2017-11-14T16:07:37.766Z,46.30
2017-11-14T16:10:05.698Z,47.20
2017-11-14T16:12:34.488Z,47.00
2017-11-14T16:15:03.252Z,47.20
2017-11-14T16:17:31.254Z,47.10
2017-11-14T16:34:07.175Z,49.80
2017-11-14T16:36:36.380Z,46.90
2017-11-14T16:39:04.410Z,46.90
2017-11-14T16:41:37.731Z,47.30
2017-11-14T16:44:05.868Z,46.80
2017-11-14T16:46:36.221Z,47.70
2017-11-14T16:49:04.309Z,47.30
2017-11-14T16:51:32.304Z,47.40
2017-11-14T16:54:00.460Z,47.30
2017-11-14T16:56:31.196Z,47.40
2017-11-14T16:58:59.152Z,46.90
2017-11-14T17:01:28.036Z,47.80
2017-11-14T17:03:56.961Z,46.50
2017-11-14T17:06:27.685Z,47.00
2017-11-14T17:08:55.859Z,46.50
2017-11-14T17:11:24.045Z,46.90
2017-11-14T17:13:52.034Z,47.40
2017-11-14T17:16:20.007Z,47.00
2017-11-14T17:18:47.983Z,47.50
2017-11-14T17:21:15.814Z,47.60
2017-11-14T17:23:43.685Z,47.20
2017-11-14T17:26:11.470Z,47.10
2017-11-14T17:28:39.335Z,47.10
2017-11-14T17:31:07.223Z,47.20
2017-11-14T17:33:35.096Z,47.40
2017-11-14T17:36:03.118Z,43.60
2017-11-14T17:51:52.390Z,45.20
2017-11-14T17:54:23.997Z,47.00
2017-11-14T17:56:51.853Z,46.50
2017-11-14T17:59:19.842Z,47.30
2017-11-14T18:01:50.121Z,47.20
2017-11-14T18:04:18.089Z,45.80
2017-11-14T18:06:45.871Z,47.50
2017-11-14T18:09:14.467Z,48.60
2017-11-14T18:11:42.379Z,48.70
2017-11-14T18:14:10.250Z,44.20
2017-11-14T18:16:38.048Z,46.10
2017-11-14T18:19:05.961Z,48.70
2017-11-14T18:21:33.924Z,44.00
2017-11-14T18:24:04.490Z,49.30
2017-11-14T18:26:32.431Z,49.10
2017-11-14T18:29:00.307Z,46.50
2017-11-14T18:31:28.320Z,36.10
2017-11-14T18:33:57.088Z,46.20
2017-11-14T18:36:25.307Z,45.90
2017-11-14T18:38:54.535Z,47.90
2017-11-14T18:41:22.458Z,41.60
2017-11-14T18:43:50.338Z,49.80
2017-11-14T18:46:20.606Z,48.40
2017-11-14T18:48:48.514Z,48.50
2017-11-14T18:51:17.224Z,46.00
2017-11-14T18:53:45.888Z,42.80
2017-11-14T18:56:13.715Z,43.10
2017-11-14T18:58:41.625Z,43.10
2017-11-14T19:01:09.400Z,49.00
2017-11-14T19:03:44.806Z,49.20
2017-11-14T19:06:13.963Z,50.60
2017-11-14T19:08:41.825Z,49.90
2017-11-14T19:11:09.751Z,51.00
2017-11-14T19:13:37.488Z,49.70
2017-11-14T19:16:05.308Z,51.00
2017-11-14T19:18:33.104Z,50.70
2017-11-14T19:21:01.658Z,50.10
2017-11-14T19:23:29.565Z,50.10
2017-11-14T19:25:57.374Z,47.00
2017-11-14T19:28:25.180Z,50.40
2017-11-14T19:30:53.026Z,50.70
2017-11-14T19:33:20.760Z,47.00
2017-11-14T19:35:54.028Z,42.30
2017-11-14T19:38:22.057Z,42.70
2017-11-14T19:40:49.901Z,50.10
2017-11-14T19:43:17.697Z,33.20
2017-11-14T19:45:45.551Z,45.60
2017-11-14T19:48:13.793Z,47.90
2017-11-14T19:50:47.384Z,51.00
2017-11-14T19:53:15.248Z,49.60
2017-11-14T19:55:43.843Z,47.30
2017-11-14T19:58:11.745Z,46.90
2017-11-14T20:00:40.386Z,47.70
2017-11-14T20:03:09.114Z,47.40
2017-11-14T20:05:36.981Z,47.40
2017-11-14T20:08:04.810Z,44.00
2017-11-14T20:10:32.667Z,44.10
2017-11-14T20:13:00.560Z,39.80
2017-11-14T20:15:28.519Z,45.50
2017-11-14T20:17:57.068Z,47.70
2017-11-14T20:20:24.837Z,47.10
2017-11-14T20:22:53.720Z,49.70
2017-11-14T20:25:21.648Z,46.80
2017-11-14T20:27:50.850Z,49.60
2017-11-14T20:30:19.634Z,48.50
2017-11-14T20:32:47.534Z,48.50
2017-11-14T20:35:16.387Z,48.50
2017-11-14T20:37:46.185Z,47.60
2017-11-14T20:40:14.516Z,47.50
2017-11-14T20:42:42.377Z,40.80
2017-11-14T20:45:10.206Z,48.00
2017-11-14T20:47:38.031Z,49.00
2017-11-14T20:50:05.868Z,38.70
2017-11-14T20:52:34.409Z,47.60
2017-11-14T20:55:02.234Z,47.60
2017-11-14T20:57:31.172Z,48.20
2017-11-14T20:59:59.065Z,47.40
2017-11-14T21:02:26.899Z,46.70
2017-11-14T21:04:54.669Z,47.70
2017-11-14T21:07:22.512Z,47.70
2017-11-14T21:09:50.373Z,47.30
2017-11-14T21:12:18.257Z,45.70
2017-11-14T21:14:46.140Z,48.30
2017-11-14T21:17:14.008Z,45.30
2017-11-14T21:19:41.805Z,41.50
2017-11-14T21:22:09.601Z,35.60
2017-11-14T21:24:37.421Z,46.30
2017-11-14T21:27:05.261Z,48.00
2017-11-14T21:29:33.867Z,48.50
2017-11-14T21:32:01.748Z,48.50
2017-11-14T21:34:29.537Z,34.00
2017-11-14T21:36:58.213Z,47.90
2017-11-14T21:39:26.369Z,47.40
2017-11-14T21:42:02.378Z,49.10
2017-11-14T21:44:34.105Z,47.00
2017-11-14T21:47:01.872Z,47.10
2017-11-14T21:49:29.693Z,45.90
2017-11-14T21:51:57.517Z,47.50
2017-11-14T21:54:25.379Z,31.80
2017-11-14T21:56:53.197Z,48.70
2017-11-14T21:59:20.948Z,40.80
2017-11-14T22:01:48.761Z,41.10
2017-11-14T22:04:16.573Z,50.20
2017-11-14T22:06:45.155Z,50.30
2017-11-14T22:09:12.931Z,50.20
2017-11-14T22:11:40.769Z,49.30
2017-11-14T22:14:08.598Z,51.60
2017-11-14T22:16:36.406Z,51.40
2017-11-14T22:19:04.203Z,50.80
2017-11-14T22:21:32.800Z,48.30
2017-11-14T22:24:01.418Z,35.90
2017-11-14T22:26:29.316Z,35.60
2017-11-14T22:28:57.161Z,36.70
2017-11-14T22:31:25.012Z,41.90
2017-11-14T22:33:52.894Z,48.40
2017-11-14T22:36:20.706Z,42.70
2017-11-14T22:38:48.608Z,46.50
2017-11-14T22:41:16.498Z,45.70
2017-11-14T22:43:44.358Z,47.60
2017-11-14T22:46:12.194Z,49.10
2017-11-14T22:48:40.033Z,49.00
2017-11-14T22:51:07.855Z,52.00
2017-11-14T22:53:35.656Z,50.00
2017-11-14T22:56:03.586Z,50.20
2017-11-14T22:58:31.455Z,34.90
2017-11-14T23:00:59.305Z,38.10
2017-11-14T23:03:27.949Z,43.00
2017-11-14T23:05:55.807Z,42.70
2017-11-14T23:08:23.614Z,43.60
2017-11-14T23:10:52.300Z,51.80
2017-11-14T23:13:20.075Z,47.80
2017-11-14T23:15:47.849Z,48.60
2017-11-14T23:18:15.605Z,36.00
2017-11-14T23:20:43.415Z,41.10
2017-11-14T23:23:11.229Z,38.00
2017-11-14T23:25:39.008Z,53.60
2017-11-14T23:28:07.609Z,52.60
2017-11-14T23:30:36.158Z,45.80
2017-11-14T23:33:03.960Z,45.60
2017-11-14T23:35:32.471Z,50.40
2017-11-14T23:38:00.279Z,50.40
2017-11-14T23:40:28.108Z,51.20
2017-11-14T23:42:55.891Z,37.60
2017-11-14T23:45:24.289Z,50.30
2017-11-14T23:47:52.095Z,47.50
2017-11-14T23:50:19.941Z,51.60
2017-11-14T23:52:47.716Z,33.40
2017-11-14T23:55:15.495Z,44.90
2017-11-14T23:57:43.324Z,38.70
